createdAt,value
2022-12-06T00:01:21.623Z,76.25
2022-12-06T00:03:53.314Z,75.99
2022-12-06T00:06:22.583Z,76.13
2022-12-06T00:08:50.049Z,76.16
2022-12-06T00:11:25.351Z,75.77
2022-12-06T00:13:54.401Z,75.75
2022-12-06T00:16:21.554Z,76.35
2022-12-06T00:18:49.275Z,76.01
2022-12-06T00:21:30.449Z,76.21
2022-12-06T00:24:09.176Z,75.67
2022-12-06T00:26:37.466Z,76.03
2022-12-06T00:29:05.328Z,76.20
2022-12-06T00:31:32.583Z,76.23
2022-12-06T00:33:59.269Z,76.01
2022-12-06T00:36:28.833Z,76.31
2022-12-06T00:38:56.097Z,76.08
2022-12-06T00:41:24.668Z,76.26
2022-12-06T00:43:52.668Z,76.63
2022-12-06T00:46:22.941Z,76.35
2022-12-06T00:48:50.747Z,76.11
2022-12-06T00:51:19.196Z,75.77
2022-12-06T00:53:46.277Z,75.58
2022-12-06T00:56:13.747Z,75.57
2022-12-06T00:58:40.613Z,75.70
2022-12-06T01:01:18.741Z,75.32
2022-12-06T01:03:45.801Z,75.60
2022-12-06T01:06:15.874Z,75.63
2022-12-06T01:08:43.320Z,75.92
2022-12-06T01:11:11.311Z,75.49
2022-12-06T01:13:38.050Z,75.60
2022-12-06T01:16:09.759Z,75.95
2022-12-06T01:18:36.987Z,75.76
2022-12-06T01:21:08.637Z,75.40
2022-12-06T01:23:36.263Z,75.73
2022-12-06T01:26:04.280Z,76.14
2022-12-06T01:28:31.285Z,76.03
2022-12-06T01:30:58.106Z,75.87
2022-12-06T01:33:25.180Z,75.99
2022-12-06T01:35:52.108Z,76.11
2022-12-06T01:38:18.793Z,76.30
2022-12-06T01:40:48.581Z,75.83
2022-12-06T01:43:40.622Z,75.74
2022-12-06T01:46:20.444Z,76.20
2022-12-06T01:48:55.749Z,76.32
2022-12-06T01:51:23.234Z,76.72
2022-12-06T01:53:53.516Z,76.36
2022-12-06T01:56:21.552Z,76.29
2022-12-06T01:58:51.090Z,75.92
2022-12-06T02:01:18.173Z,76.06
2022-12-06T02:03:46.076Z,75.74
2022-12-06T02:06:12.842Z,75.79
2022-12-06T02:08:39.641Z,76.14
2022-12-06T02:11:06.479Z,76.03
2022-12-06T02:13:36.031Z,76.34
2022-12-06T02:16:30.544Z,76.30
2022-12-06T02:19:37.676Z,76.67
2022-12-06T02:22:11.269Z,76.55
2022-12-06T02:25:22.546Z,76.17
2022-12-06T02:28:02.981Z,76.32
2022-12-06T02:30:58.575Z,76.13
2022-12-06T02:33:40.113Z,76.51
2022-12-06T02:36:09.792Z,76.37
2022-12-06T02:38:43.805Z,75.68
2022-12-06T02:41:16.943Z,76.60
2022-12-06T02:43:54.784Z,76.72
2022-12-06T02:46:23.433Z,77.44
2022-12-06T02:48:53.278Z,76.99
2022-12-06T02:51:21.268Z,77.16
2022-12-06T02:53:52.957Z,76.99
2022-12-06T02:56:20.183Z,77.23
2022-12-06T02:58:47.709Z,77.43
2022-12-06T03:01:33.634Z,77.56
2022-12-06T03:04:06.479Z,77.27
2022-12-06T03:06:35.960Z,77.23
2022-12-06T03:09:05.403Z,76.81
2022-12-06T03:11:48.723Z,77.40
2022-12-06T03:14:22.519Z,76.62
2022-12-06T03:17:09.503Z,76.07
2022-12-06T03:19:40.109Z,76.85
2022-12-06T03:22:13.400Z,76.69
2022-12-06T03:24:43.125Z,76.02
2022-12-06T03:27:15.678Z,76.21
2022-12-06T03:29:47.734Z,76.16
2022-12-06T03:32:16.874Z,76.29
2022-12-06T03:34:47.494Z,75.86
2022-12-06T03:37:18.991Z,75.63
2022-12-06T03:40:02.101Z,75.44
2022-12-06T03:42:30.599Z,75.35
2022-12-06T03:44:58.828Z,75.92
2022-12-06T03:47:34.083Z,75.85
2022-12-06T03:50:16.944Z,76.05
2022-12-06T03:52:43.901Z,76.25
2022-12-06T03:55:10.715Z,75.73
2022-12-06T03:57:37.402Z,75.49
2022-12-06T04:00:06.127Z,75.23
2022-12-06T04:02:38.171Z,75.46
2022-12-06T04:05:05.199Z,75.78
2022-12-06T04:07:31.956Z,76.01
2022-12-06T04:10:04.550Z,75.62
2022-12-06T04:12:51.918Z,75.56
2022-12-06T04:15:20.126Z,75.68
2022-12-06T04:18:05.167Z,75.75
2022-12-06T04:20:52.651Z,76.01
2022-12-06T04:23:20.240Z,75.66
2022-12-06T04:25:47.192Z,75.22
2022-12-06T04:28:32.495Z,75.66
2022-12-06T04:31:22.089Z,75.41
2022-12-06T04:34:08.557Z,75.01
2022-12-06T04:36:54.998Z,75.64
2022-12-06T04:39:21.890Z,75.55
2022-12-06T04:42:07.824Z,75.45
2022-12-06T04:44:34.550Z,74.73
2022-12-06T04:47:01.532Z,74.80
2022-12-06T04:49:29.885Z,74.87
2022-12-06T04:51:56.609Z,75.09
2022-12-06T04:54:24.547Z,74.80
2022-12-06T04:56:51.466Z,74.86
2022-12-06T04:59:18.336Z,74.82
2022-12-06T05:01:45.028Z,74.95
2022-12-06T05:04:12.949Z,74.58
2022-12-06T05:06:39.740Z,74.48
2022-12-06T05:09:06.492Z,74.64
2022-12-06T05:11:33.425Z,74.49
2022-12-06T05:14:01.140Z,74.63
2022-12-06T05:16:28.210Z,74.84
2022-12-06T05:18:55.148Z,74.63
2022-12-06T05:21:23.911Z,74.75
2022-12-06T05:23:54.271Z,74.52
2022-12-06T05:26:24.146Z,74.74
2022-12-06T05:28:51.040Z,75.07
2022-12-06T05:31:19.142Z,74.50
2022-12-06T05:33:46.827Z,74.24
2022-12-06T05:36:16.981Z,74.20
2022-12-06T05:38:47.118Z,74.28
2022-12-06T05:41:18.970Z,74.50
2022-12-06T05:43:45.652Z,74.05
2022-12-06T05:46:12.405Z,73.94
2022-12-06T05:48:39.116Z,73.65
2022-12-06T05:51:06.072Z,74.02
2022-12-06T05:53:32.774Z,74.12
2022-12-06T05:56:07.503Z,74.36
2022-12-06T05:58:34.543Z,74.42
2022-12-06T06:01:01.218Z,74.18
2022-12-06T06:03:27.988Z,74.13
2022-12-06T06:05:58.534Z,73.88
2022-12-06T06:08:25.573Z,74.21
2022-12-06T06:10:52.243Z,74.10
2022-12-06T06:13:19.024Z,74.70
2022-12-06T06:15:45.708Z,74.63
2022-12-06T06:18:12.460Z,75.06
2022-12-06T06:20:39.123Z,74.98
2022-12-06T06:23:05.914Z,74.65
2022-12-06T06:25:32.592Z,74.58
2022-12-06T06:27:59.316Z,74.02
2022-12-06T06:30:26.134Z,73.90
2022-12-06T06:32:52.923Z,74.31
2022-12-06T06:35:19.590Z,74.69
2022-12-06T06:37:46.298Z,74.23
2022-12-06T06:40:12.985Z,74.33
2022-12-06T06:42:39.716Z,74.68
2022-12-06T06:45:06.899Z,74.55
2022-12-06T06:47:34.231Z,75.16
2022-12-06T06:50:01.225Z,74.50
2022-12-06T06:52:28.275Z,74.57
2022-12-06T06:54:55.233Z,74.19
2022-12-06T06:57:21.979Z,74.04
2022-12-06T06:59:48.606Z,74.21
2022-12-06T07:02:17.401Z,73.92
2022-12-06T07:04:45.057Z,74.54
2022-12-06T07:07:17.890Z,74.46
2022-12-06T07:09:47.451Z,74.47
2022-12-06T07:12:14.586Z,74.40
2022-12-06T07:14:41.347Z,74.13
2022-12-06T07:17:08.211Z,73.85
2022-12-06T07:19:35.000Z,74.12
2022-12-06T07:22:01.680Z,74.04
2022-12-06T07:24:28.386Z,74.44
2022-12-06T07:26:56.839Z,74.24
2022-12-06T07:29:23.525Z,73.90
2022-12-06T07:31:50.141Z,74.08
2022-12-06T07:34:16.909Z,74.01
2022-12-06T07:36:43.558Z,73.42
2022-12-06T07:39:14.498Z,73.51
2022-12-06T07:42:00.250Z,73.93
2022-12-06T07:45:02.956Z,73.21
2022-12-06T07:47:38.069Z,73.65
2022-12-06T07:50:06.682Z,73.22
2022-12-06T07:52:34.874Z,73.63
2022-12-06T07:55:02.371Z,73.44
2022-12-06T07:57:29.270Z,73.43
2022-12-06T07:59:55.962Z,73.41
2022-12-06T08:02:26.622Z,73.57
2022-12-06T08:04:54.751Z,73.57
2022-12-06T08:07:22.501Z,73.10
2022-12-06T08:09:51.125Z,81.36
2022-12-06T08:12:17.764Z,78.60
2022-12-06T08:14:44.508Z,73.80
2022-12-06T08:17:11.257Z,72.76
2022-12-06T08:19:37.983Z,73.60
2022-12-06T08:22:04.815Z,71.75
2022-12-06T08:24:31.475Z,69.65
2022-12-06T08:26:59.327Z,70.24
2022-12-06T08:29:26.123Z,70.56
2022-12-06T08:31:52.879Z,69.66
2022-12-06T08:34:19.574Z,70.68
2022-12-06T08:36:46.108Z,70.57
2022-12-06T08:39:14.553Z,69.42
2022-12-06T08:41:57.941Z,69.11
2022-12-06T08:44:28.920Z,69.45
2022-12-06T08:46:56.858Z,69.53
2022-12-06T08:49:25.200Z,68.74
2022-12-06T08:51:52.440Z,68.20
2022-12-06T08:54:22.134Z,68.20
2022-12-06T08:56:50.073Z,67.87
2022-12-06T08:59:17.486Z,67.51
2022-12-06T09:01:45.524Z,66.97
2022-12-06T09:04:12.497Z,67.12
2022-12-06T09:06:41.560Z,67.41
2022-12-06T09:09:09.571Z,66.84
2022-12-06T09:11:36.522Z,66.81
2022-12-06T09:14:03.251Z,67.21
2022-12-06T09:16:30.003Z,67.12
2022-12-06T09:18:57.713Z,66.97
2022-12-06T09:21:26.698Z,66.43
2022-12-06T09:23:56.105Z,66.49
2022-12-06T09:26:23.624Z,66.24
2022-12-06T09:28:50.917Z,66.05
2022-12-06T09:31:19.012Z,65.82
2022-12-06T09:33:46.804Z,65.78
2022-12-06T09:36:25.717Z,65.63
2022-12-06T09:38:55.367Z,65.45
2022-12-06T09:41:46.285Z,65.61
2022-12-06T09:44:23.327Z,65.75
2022-12-06T09:47:43.562Z,65.75
2022-12-06T09:50:28.725Z,65.71
2022-12-06T09:53:16.429Z,66.10
2022-12-06T09:55:54.866Z,65.28
2022-12-06T09:58:46.090Z,64.96
2022-12-06T10:01:18.680Z,65.50
2022-12-06T10:04:06.727Z,64.34
2022-12-06T10:06:59.497Z,63.34
2022-12-06T10:09:50.922Z,63.49
2022-12-06T10:12:32.509Z,62.86
2022-12-06T10:15:15.642Z,62.48
2022-12-06T10:18:07.937Z,62.27
2022-12-06T10:20:41.460Z,62.29
2022-12-06T10:23:39.871Z,62.09
2022-12-06T10:26:23.948Z,61.98
2022-12-06T10:29:29.760Z,61.46
2022-12-06T10:32:04.795Z,61.53
2022-12-06T10:34:37.173Z,61.32
2022-12-06T10:37:37.279Z,61.25
2022-12-06T10:40:17.122Z,60.75
2022-12-06T10:43:02.475Z,60.61
2022-12-06T10:45:53.693Z,60.61
2022-12-06T10:48:35.993Z,60.29
2022-12-06T10:51:09.782Z,60.47
2022-12-06T10:53:44.959Z,60.46
2022-12-06T10:56:19.980Z,60.72
2022-12-06T10:58:56.972Z,60.52
2022-12-06T11:01:28.736Z,60.66
2022-12-06T11:04:13.803Z,60.68
2022-12-06T11:06:55.029Z,60.17
2022-12-06T11:09:40.603Z,60.03
2022-12-06T11:12:25.216Z,60.21
2022-12-06T11:15:17.510Z,60.08
2022-12-06T11:17:48.719Z,60.25
2022-12-06T11:20:25.371Z,60.23
2022-12-06T11:23:08.621Z,60.24
2022-12-06T11:25:44.240Z,61.08
2022-12-06T11:28:26.448Z,61.53
2022-12-06T11:30:54.280Z,61.70
2022-12-06T11:33:26.067Z,61.95
2022-12-06T11:35:52.864Z,62.43
2022-12-06T11:38:19.480Z,63.01
2022-12-06T11:40:51.756Z,63.00
2022-12-06T11:43:24.313Z,63.12
2022-12-06T11:45:51.167Z,62.99
2022-12-06T11:48:21.909Z,63.25
2022-12-06T11:50:50.272Z,63.25
2022-12-06T11:53:33.466Z,63.31
2022-12-06T11:56:22.586Z,62.76
2022-12-06T11:59:01.769Z,63.18
2022-12-06T12:01:46.803Z,63.25
2022-12-06T12:04:59.210Z,63.53
2022-12-06T12:07:35.261Z,63.61
2022-12-06T12:10:23.922Z,63.84
2022-12-06T12:13:09.555Z,64.02
2022-12-06T12:15:37.204Z,63.80
2022-12-06T12:18:05.570Z,63.76
2022-12-06T12:20:37.707Z,63.86
2022-12-06T12:23:17.949Z,63.97
2022-12-06T12:26:17.336Z,64.06
2022-12-06T12:28:46.696Z,64.27
2022-12-06T12:31:26.587Z,63.98
2022-12-06T12:34:25.512Z,64.41
2022-12-06T12:37:02.911Z,64.92
2022-12-06T12:39:39.370Z,65.21
2022-12-06T12:42:29.558Z,65.57
2022-12-06T12:45:00.925Z,65.75
2022-12-06T12:47:27.917Z,66.19
2022-12-06T12:50:20.196Z,66.10
2022-12-06T12:52:47.088Z,66.36
2022-12-06T12:55:15.718Z,66.50
2022-12-06T12:57:46.207Z,66.41
2022-12-06T13:00:18.358Z,66.29
2022-12-06T13:02:50.064Z,66.37
2022-12-06T13:05:38.350Z,66.68
2022-12-06T13:08:19.289Z,66.98
2022-12-06T13:10:58.437Z,67.46
2022-12-06T13:13:32.427Z,67.25
2022-12-06T13:16:04.646Z,67.20
2022-12-06T13:18:47.474Z,66.93
2022-12-06T13:21:37.973Z,67.16
2022-12-06T13:24:10.383Z,66.87
2022-12-06T13:26:41.591Z,67.20
2022-12-06T13:29:28.407Z,66.98
2022-12-06T13:31:58.047Z,67.38
2022-12-06T13:34:40.054Z,66.85
2022-12-06T13:37:29.787Z,66.96
2022-12-06T13:39:57.109Z,66.94
2022-12-06T13:42:45.337Z,66.79
2022-12-06T13:45:40.383Z,66.75
2022-12-06T13:48:25.344Z,66.74
2022-12-06T13:50:54.959Z,66.76
2022-12-06T13:53:24.426Z,66.71
2022-12-06T13:55:59.114Z,66.98
2022-12-06T13:58:26.226Z,66.85
2022-12-06T14:00:54.687Z,66.85
2022-12-06T14:03:21.487Z,66.92
2022-12-06T14:08:22.444Z,66.73
2022-12-06T14:10:49.256Z,66.63
2022-12-06T14:13:21.136Z,66.83
2022-12-06T14:15:50.712Z,66.96
2022-12-06T14:18:20.181Z,66.89
2022-12-06T14:20:49.605Z,66.97
2022-12-06T14:23:40.003Z,67.41
2022-12-06T14:26:21.748Z,67.79
2022-12-06T14:28:49.942Z,68.23
2022-12-06T14:31:22.048Z,68.48
2022-12-06T14:33:49.418Z,68.60
2022-12-06T14:36:30.361Z,68.82
2022-12-06T14:38:58.676Z,68.65
2022-12-06T14:41:57.153Z,68.49
2022-12-06T14:44:29.862Z,68.77
2022-12-06T14:46:57.861Z,69.06
2022-12-06T14:49:45.325Z,69.11
2022-12-06T14:52:30.347Z,68.82
2022-12-06T14:55:12.166Z,68.88
2022-12-06T14:57:46.285Z,68.95
2022-12-06T15:00:26.262Z,69.04
2022-12-06T15:03:23.458Z,69.52
2022-12-06T15:06:08.189Z,69.32
2022-12-06T15:08:36.499Z,69.72
2022-12-06T15:11:40.399Z,69.89
2022-12-06T15:14:39.343Z,69.85
2022-12-06T15:17:18.619Z,70.04
2022-12-06T15:19:48.334Z,70.06
2022-12-06T15:22:24.946Z,70.02
2022-12-06T15:24:55.396Z,70.04
2022-12-06T15:27:23.331Z,70.41
2022-12-06T15:29:50.268Z,70.56
2022-12-06T15:32:19.238Z,70.48
2022-12-06T15:34:46.519Z,70.92
2022-12-06T15:37:38.135Z,70.88
2022-12-06T15:40:02.183Z,71.07
2022-12-06T15:42:28.936Z,71.03
2022-12-06T15:44:55.563Z,70.81
2022-12-06T15:47:22.180Z,70.87
2022-12-06T15:49:51.609Z,70.94
2022-12-06T15:52:22.974Z,71.33
2022-12-06T15:54:49.674Z,71.00
2022-12-06T15:57:16.309Z,70.92
2022-12-06T15:59:42.924Z,71.18
2022-12-06T16:02:15.448Z,71.16
2022-12-06T16:04:43.127Z,71.15
2022-12-06T16:07:10.654Z,71.46
2022-12-06T16:09:37.742Z,71.27
2022-12-06T16:12:04.808Z,71.39
2022-12-06T16:14:31.423Z,71.34
2022-12-06T16:16:58.014Z,71.39
2022-12-06T16:19:24.676Z,71.30
2022-12-06T16:21:58.020Z,71.36
2022-12-06T16:24:24.694Z,71.48
2022-12-06T16:26:51.416Z,71.55
2022-12-06T16:29:20.932Z,71.69
2022-12-06T16:31:47.964Z,71.87
2022-12-06T16:34:15.491Z,71.85
2022-12-06T16:37:02.315Z,72.13
2022-12-06T16:39:30.345Z,71.99
2022-12-06T16:41:57.339Z,72.19
2022-12-06T16:44:24.070Z,72.29
2022-12-06T16:46:51.954Z,72.24
2022-12-06T16:52:14.316Z,72.47
2022-12-06T16:54:41.693Z,72.50
2022-12-06T16:57:10.766Z,72.67
2022-12-06T16:59:37.379Z,72.54
2022-12-06T17:02:18.327Z,72.90
2022-12-06T17:04:44.920Z,72.71
2022-12-06T17:07:11.466Z,72.83
2022-12-06T17:09:38.098Z,72.67
2022-12-06T17:12:06.310Z,73.13
2022-12-06T17:14:33.662Z,72.94
2022-12-06T17:17:03.904Z,72.88
2022-12-06T17:19:32.077Z,72.99
2022-12-06T17:22:02.010Z,73.29
2022-12-06T17:24:28.903Z,73.17
2022-12-06T17:26:56.020Z,73.51
2022-12-06T17:29:23.981Z,73.40
2022-12-06T17:31:51.828Z,73.33
2022-12-06T17:34:20.040Z,73.50
2022-12-06T17:36:48.159Z,73.52
2022-12-06T17:39:17.129Z,73.42
2022-12-06T17:42:02.341Z,73.45
2022-12-06T17:44:29.277Z,73.51
2022-12-06T17:46:56.162Z,73.48
2022-12-06T17:49:24.712Z,73.44
2022-12-06T17:51:51.624Z,73.54
2022-12-06T17:54:19.510Z,73.54
2022-12-06T17:56:48.163Z,73.49
2022-12-06T17:59:17.759Z,73.34
2022-12-06T18:02:13.376Z,73.49
2022-12-06T18:04:31.775Z,73.34
2022-12-06T18:06:58.585Z,73.51
2022-12-06T18:09:25.406Z,73.38
2022-12-06T18:11:52.087Z,73.54
2022-12-06T18:14:18.984Z,73.40
2022-12-06T18:16:46.599Z,73.66
2022-12-06T18:19:19.361Z,73.47
2022-12-06T18:21:47.045Z,73.64
2022-12-06T18:24:25.851Z,73.74
2022-12-06T18:26:55.766Z,73.90
2022-12-06T18:29:24.323Z,73.72
2022-12-06T18:31:51.713Z,73.94
2022-12-06T18:34:19.182Z,73.77
2022-12-06T18:36:46.320Z,74.23
2022-12-06T18:39:16.223Z,74.29
2022-12-06T18:41:44.694Z,74.38
2022-12-06T18:44:12.969Z,74.70
2022-12-06T18:46:42.489Z,74.52
2022-12-06T18:49:11.325Z,74.36
2022-12-06T18:51:38.847Z,74.97
2022-12-06T18:54:06.818Z,74.80
2022-12-06T18:56:34.386Z,75.26
2022-12-06T18:59:02.824Z,75.19
2022-12-06T19:01:32.797Z,75.16
2022-12-06T19:04:03.009Z,74.79
2022-12-06T19:06:32.822Z,75.03
2022-12-06T19:09:06.739Z,74.93
2022-12-06T19:11:36.340Z,75.06
2022-12-06T19:14:03.130Z,75.02
2022-12-06T19:16:39.251Z,75.03
2022-12-06T19:19:15.505Z,75.04
2022-12-06T19:21:43.886Z,75.22
2022-12-06T19:24:12.604Z,75.02
2022-12-06T19:26:39.881Z,75.08
2022-12-06T19:29:06.540Z,75.35
2022-12-06T19:31:33.301Z,75.38
2022-12-06T19:34:00.162Z,75.38
2022-12-06T19:36:28.906Z,75.76
2022-12-06T19:39:05.987Z,75.51
2022-12-06T19:41:53.410Z,75.33
2022-12-06T19:44:20.043Z,75.32
2022-12-06T19:46:48.209Z,75.78
2022-12-06T19:49:17.580Z,75.74
2022-12-06T19:51:46.449Z,75.70
2022-12-06T19:54:23.113Z,75.66
2022-12-06T19:56:51.165Z,75.45
2022-12-06T19:59:17.752Z,75.52
2022-12-06T20:01:45.965Z,75.36
2022-12-06T20:04:22.601Z,75.63
2022-12-06T20:06:50.657Z,75.51
2022-12-06T20:09:18.871Z,75.44
2022-12-06T20:12:01.700Z,75.48
2022-12-06T20:14:32.461Z,75.64
2022-12-06T20:16:59.156Z,75.53
2022-12-06T20:19:25.899Z,75.61
2022-12-06T20:21:52.598Z,75.59
2022-12-06T20:24:21.266Z,76.41
2022-12-06T20:26:54.461Z,76.56
2022-12-06T20:29:22.064Z,76.51
2022-12-06T20:31:51.508Z,76.80
2022-12-06T20:34:19.082Z,76.99
2022-12-06T20:36:46.001Z,77.13
2022-12-06T20:39:24.777Z,76.57
2022-12-06T20:41:51.557Z,76.39
2022-12-06T20:44:18.794Z,77.30
2022-12-06T20:46:45.805Z,76.68
2022-12-06T20:49:12.996Z,76.86
2022-12-06T20:51:40.254Z,76.55
2022-12-06T20:54:07.938Z,76.12
2022-12-06T20:56:37.487Z,76.10
2022-12-06T20:59:05.957Z,76.79
2022-12-06T21:01:36.037Z,76.50
2022-12-06T21:04:02.919Z,76.00
2022-12-06T21:06:29.511Z,76.36
2022-12-06T21:08:56.116Z,76.46
2022-12-06T21:11:24.982Z,76.39
2022-12-06T21:13:56.352Z,76.12
2022-12-06T21:16:29.095Z,76.12
2022-12-06T21:18:56.846Z,76.46
2022-12-06T21:21:29.083Z,76.78
2022-12-06T21:23:59.388Z,76.76
2022-12-06T21:26:26.054Z,76.77
2022-12-06T21:28:53.373Z,76.79
2022-12-06T21:31:20.290Z,77.18
2022-12-06T21:33:46.936Z,77.09
2022-12-06T21:36:13.616Z,77.44
2022-12-06T21:38:40.188Z,77.38
2022-12-06T21:41:12.751Z,77.06
2022-12-06T21:43:40.511Z,77.32
2022-12-06T21:46:10.562Z,76.83
2022-12-06T21:48:37.298Z,76.91
2022-12-06T21:51:06.621Z,77.10
2022-12-06T21:53:34.082Z,76.86
2022-12-06T21:56:06.459Z,76.71
2022-12-06T21:58:33.111Z,76.75
2022-12-06T22:01:14.444Z,77.27
2022-12-06T22:03:41.243Z,77.15
2022-12-06T22:06:10.148Z,77.20
2022-12-06T22:08:38.035Z,77.22
2022-12-06T22:11:10.173Z,77.53
2022-12-06T22:13:36.947Z,76.97
2022-12-06T22:16:06.016Z,77.22
2022-12-06T22:18:34.467Z,76.77
2022-12-06T22:21:07.644Z,76.59
2022-12-06T22:23:34.779Z,76.77
2022-12-06T22:26:05.893Z,76.74
2022-12-06T22:28:32.851Z,76.78
2022-12-06T22:31:14.564Z,77.13
2022-12-06T22:33:41.982Z,77.01
2022-12-06T22:39:04.289Z,76.75
2022-12-06T22:41:32.088Z,76.67
2022-12-06T22:44:01.253Z,76.72
2022-12-06T22:46:29.429Z,77.05
2022-12-06T22:48:57.670Z,76.95
2022-12-06T22:51:26.852Z,77.01
2022-12-06T22:54:05.392Z,77.02
2022-12-06T22:56:35.971Z,77.51
2022-12-06T22:59:02.885Z,77.44
2022-12-06T23:01:32.934Z,77.33
2022-12-06T23:04:02.258Z,77.17
2022-12-06T23:06:29.118Z,77.30
2022-12-06T23:08:55.902Z,77.53
2022-12-06T23:11:25.794Z,77.56
2022-12-06T23:13:53.702Z,77.98
2022-12-06T23:16:23.149Z,78.05
2022-12-06T23:18:50.267Z,78.03
2022-12-06T23:21:23.286Z,77.72
2022-12-06T23:23:55.340Z,78.10
2022-12-06T23:26:29.591Z,77.85
2022-12-06T23:28:56.445Z,78.71
2022-12-06T23:31:25.641Z,78.75
2022-12-06T23:33:59.588Z,78.76
2022-12-06T23:36:29.455Z,78.70
2022-12-06T23:38:56.087Z,78.80
2022-12-06T23:41:28.316Z,78.03
2022-12-06T23:43:56.228Z,77.91
2022-12-06T23:46:25.916Z,78.41
2022-12-06T23:48:53.822Z,78.41
2022-12-06T23:51:23.183Z,78.83
2022-12-06T23:53:56.896Z,78.82
2022-12-06T23:56:24.795Z,79.85
2022-12-06T23:58:52.146Z,79.92
